Time;durP1;ratioP1;P1;durP2;ratioP2;P2;SDS_P1;SDS_P2;PMS_P1;PMS_P2;Temp;Humidity;BMP_temperature;BMP_pressure;BME280_temperature;BME280_humidity;BME280_pressure;Samples;Min_cycle;Max_cycle;Signal;HPM_P1;HPM_P2
2022/01/16 00:04:17;;;;;;;14.80;6.30;;;;;;;0.98;90.06;100531.16;5086603;28;20549;-87
2022/01/16 00:06:47;;;;;;;11.13;6.82;;;;;;;1.09;90.05;100542.50;5087182;28;20032;-86
2022/01/16 00:09:13;;;;;;;13.88;6.82;;;;;;;0.91;90.47;100540.97;5087196;28;20073;-87
2022/01/16 00:11:39;;;;;;;9.55;4.78;;;;;;;1.12;90.83;100542.13;5086984;28;20247;-87
2022/01/16 00:14:06;;;;;;;17.50;7.10;;;;;;;1.28;90.40;100527.72;5073053;28;20051;-88
2022/01/16 00:16:32;;;;;;;15.02;8.88;;;;;;;1.22;89.52;100541.88;5066249;28;20104;-87
2022/01/16 00:18:58;;;;;;;15.77;7.68;;;;;;;1.23;90.24;100533.63;5066494;28;20249;-87
2022/01/16 00:21:26;;;;;;;12.73;6.88;;;;;;;1.27;89.85;100544.84;5066635;28;20036;-87
2022/01/16 00:23:52;;;;;;;14.73;8.32;;;;;;;1.48;89.70;100529.84;5066688;28;20028;-87
2022/01/16 00:26:33;;;;;;;14.55;7.28;;;;;;;1.70;89.66;100532.59;5066527;28;20036;-87
2022/01/16 00:28:58;;;;;;;9.55;6.22;;;;;;;1.73;88.64;100530.38;5066417;28;20024;-87
2022/01/16 00:31:24;;;;;;;12.65;7.03;;;;;;;1.64;88.23;100512.69;5066083;28;20032;-87
2022/01/16 00:33:50;;;;;;;14.82;7.57;;;;;;;1.66;88.92;100515.19;5066387;28;20068;-87
2022/01/16 00:36:18;;;;;;;14.35;5.88;;;;;;;1.70;88.55;100509.25;5066697;28;20028;-86
2022/01/16 00:38:45;;;;;;;10.98;5.57;;;;;;;1.74;88.23;100515.91;5066336;28;20040;-87
2022/01/16 00:41:18;;;;;;;13.23;5.63;;;;;;;1.72;87.95;100517.13;5066410;28;20086;-87
2022/01/16 00:43:43;;;;;;;10.65;5.88;;;;;;;1.81;88.04;100512.47;5046802;28;20123;-87
2022/01/16 00:46:09;;;;;;;10.18;4.75;;;;;;;1.77;88.79;100495.88;5067740;28;20123;-87
2022/01/16 00:48:35;;;;;;;10.65;4.65;;;;;;;1.92;87.84;100495.84;5063924;28;20036;-87
2022/01/16 00:51:00;;;;;;;18.35;6.97;;;;;;;1.99;87.05;100504.00;5067259;28;20095;-86
2022/01/16 00:53:26;;;;;;;10.38;4.93;;;;;;;2.00;87.92;100500.28;5084908;28;20049;-87
2022/01/16 00:55:51;;;;;;;9.43;4.93;;;;;;;1.89;88.53;100498.09;5082663;28;20029;-86
2022/01/16 00:58:16;;;;;;;12.20;6.22;;;;;;;1.90;88.13;100503.28;5073546;28;20048;-87
2022/01/16 01:00:42;;;;;;;10.90;5.32;;;;;;;1.95;88.75;100506.22;5076105;28;20090;-88
2022/01/16 01:03:07;;;;;;;10.77;5.82;;;;;;;2.09;88.04;100490.25;5086092;28;20031;-87
2022/01/16 01:05:34;;;;;;;7.18;4.35;;;;;;;1.94;89.19;100485.72;5086664;28;20430;-87
2022/01/16 01:08:00;;;;;;;9.43;4.47;;;;;;;2.06;88.57;100515.66;5086435;28;20099;-87
2022/01/16 01:10:32;;;;;;;11.25;6.35;;;;;;;2.26;87.53;100514.22;5065012;28;20032;-88
2022/01/16 01:13:08;;;;;;;11.35;5.55;;;;;;;2.10;88.14;100521.50;5083302;28;20024;-88
2022/01/16 01:15:49;;;;;;;11.02;5.28;;;;;;;1.98;88.16;100505.84;5060669;28;20053;-87
2022/01/16 01:18:17;;;;;;;12.93;6.28;;;;;;;2.10;88.04;100527.72;5082543;28;20039;-88
2022/01/16 01:23:29;;;;;;;9.77;6.00;;;;;;;2.14;88.08;100521.94;5075758;28;20477;-87
2022/01/16 01:25:55;;;;;;;11.63;6.22;;;;;;;2.04;88.68;100527.63;5086582;28;20444;-87
2022/01/16 01:28:20;;;;;;;11.38;5.85;;;;;;;2.06;88.71;100557.88;5086499;28;20024;-88
2022/01/16 01:30:46;;;;;;;12.68;6.85;;;;;;;2.13;88.73;100557.97;5062563;28;20016;-88
2022/01/16 01:33:13;;;;;;;12.07;5.15;;;;;;;2.15;88.66;100562.13;5084613;28;20063;-87
2022/01/16 01:35:39;;;;;;;10.18;5.22;;;;;;;2.26;88.11;100541.13;5065821;28;20023;-87
2022/01/16 01:38:07;;;;;;;11.30;5.55;;;;;;;2.18;88.30;100491.78;5066117;28;20114;-88
2022/01/16 01:40:34;;;;;;;10.88;6.00;;;;;;;2.27;88.09;100488.97;5066531;28;20111;-87
2022/01/16 01:51:00;;;;;;;10.95;6.22;;;;;;;2.29;88.21;100482.38;5060938;28;20374;-88
2022/01/16 01:51:32;;;;;;;16.40;8.65;;;;;;;2.42;87.92;100518.53;5066352;28;20149;-87
2022/01/16 01:53:58;;;;;;;17.95;9.30;;;;;;;2.54;87.80;100532.31;5066379;28;20491;-88
2022/01/16 01:56:25;;;;;;;12.43;7.07;;;;;;;2.52;88.29;100545.94;5066023;28;20063;-87
2022/01/16 01:58:53;;;;;;;17.52;8.15;;;;;;;2.39;87.84;100568.19;5065006;28;20043;-87
2022/01/16 02:01:19;;;;;;;16.30;9.40;;;;;;;2.32;88.45;100556.50;5051983;28;20028;-87
2022/01/16 02:03:45;;;;;;;21.02;8.35;;;;;;;2.38;88.40;100561.13;5046397;28;20036;-87
2022/01/16 02:06:16;;;;;;;14.30;6.88;;;;;;;2.47;88.26;100559.16;5060331;28;20025;-88
2022/01/16 02:08:43;;;;;;;20.35;10.25;;;;;;;2.42;88.46;100586.63;5045913;28;20077;-87
2022/01/16 02:11:11;;;;;;;16.85;9.75;;;;;;;2.35;88.35;100566.91;5028025;28;20021;-87
2022/01/16 02:13:47;;;;;;;15.73;9.07;;;;;;;2.24;88.78;100562.84;5044873;28;20037;-87
2022/01/16 02:30:35;;;;;;;15.05;8.88;;;;;;;2.19;88.13;100584.94;5045856;28;19931;-87
2022/01/16 02:35:09;;;;;;;21.73;10.15;;;;;;;2.10;88.54;100588.75;5042771;28;20048;-87
2022/01/16 02:37:34;;;;;;;19.02;10.30;;;;;;;2.16;88.41;100585.31;5045856;28;20089;-87
2022/01/16 02:40:07;;;;;;;19.88;9.18;;;;;;;2.12;88.47;100584.03;5045798;28;20435;-87
2022/01/16 02:42:38;;;;;;;19.10;10.30;;;;;;;2.17;87.95;100581.63;5027997;28;20033;-87
2022/01/16 02:45:05;;;;;;;21.52;11.38;;;;;;;2.05;88.35;100572.34;5065451;28;20029;-87
2022/01/16 02:47:31;;;;;;;19.77;9.40;;;;;;;2.17;88.44;100557.41;5080606;28;20063;-87
2022/01/16 02:50:00;;;;;;;22.70;11.23;;;;;;;2.28;87.37;100549.84;5086000;28;20032;-88
2022/01/16 02:52:25;;;;;;;17.30;10.93;;;;;;;2.13;87.87;100548.03;5085105;28;20503;-88
2022/01/16 02:54:53;;;;;;;24.02;13.98;;;;;;;2.17;87.96;100552.03;5085559;28;20378;-87
2022/01/16 02:57:20;;;;;;;23.13;12.45;;;;;;;2.13;88.10;100553.41;5067002;28;20052;-87
2022/01/16 02:59:48;;;;;;;26.90;14.10;;;;;;;2.09;88.30;100546.75;5084305;28;20032;-88
2022/01/16 03:02:14;;;;;;;23.55;14.80;;;;;;;2.02;88.16;100530.50;5065010;28;20060;-88
2022/01/16 03:04:40;;;;;;;27.20;14.27;;;;;;;2.00;88.47;100527.19;5065054;28;20021;-87
2022/01/16 03:07:06;;;;;;;28.45;17.35;;;;;;;2.06;88.00;100512.97;5065430;28;20027;-87
2022/01/16 03:10:05;;;;;;;25.65;15.50;;;;;;;2.16;88.17;100515.34;5047014;28;20036;-87
2022/01/16 03:12:18;;;;;;;24.20;13.52;;;;;;;2.13;88.49;100507.69;5064317;28;20040;-86
2022/01/16 03:14:43;;;;;;;31.27;17.65;;;;;;;2.12;87.77;100497.09;5047424;28;20028;-88
2022/01/16 03:22:57;;;;;;;28.55;17.58;;;;;;;2.16;87.32;100488.44;5047405;28;20426;-87
2022/01/16 03:25:23;;;;;;;31.85;18.08;;;;;;;2.16;87.16;100495.69;5050921;28;20524;-87
2022/01/16 03:27:48;;;;;;;35.28;18.10;;;;;;;2.12;87.65;100489.84;5068587;28;20029;-87
2022/01/16 03:30:13;;;;;;;29.85;15.57;;;;;;;2.09;87.59;100479.47;5068628;28;20511;-87
2022/01/16 03:32:39;;;;;;;29.95;17.55;;;;;;;2.06;87.28;100477.16;5068912;28;20028;-86
2022/01/16 03:35:05;;;;;;;32.08;18.88;;;;;;;2.24;86.55;100473.22;5068542;28;20052;-87
2022/01/16 03:37:30;;;;;;;37.83;19.73;;;;;;;2.24;86.77;100484.00;5069216;28;20102;-87
2022/01/16 03:39:56;;;;;;;38.55;22.00;;;;;;;2.17;87.01;100489.28;5068250;28;20027;-87
2022/01/16 03:42:26;;;;;;;39.97;19.35;;;;;;;2.20;87.37;100488.91;5068479;28;20027;-88
2022/01/16 03:44:51;;;;;;;34.50;20.63;;;;;;;2.24;87.03;100484.00;5068284;28;20024;-88
2022/01/16 03:47:17;;;;;;;39.35;20.65;;;;;;;2.27;86.35;100486.28;5082115;28;20077;-86
2022/01/16 03:49:42;;;;;;;41.47;20.75;;;;;;;2.02;87.04;100481.25;5088880;28;20474;-88
2022/01/16 03:52:07;;;;;;;40.92;22.35;;;;;;;2.09;87.52;100503.69;5088380;28;20027;-88
2022/01/16 03:54:33;;;;;;;31.30;17.92;;;;;;;2.23;87.70;100493.91;5088363;28;20028;-87
2022/01/16 03:56:59;;;;;;;36.75;19.88;;;;;;;2.14;87.21;100498.56;5088351;28;20063;-86
2022/01/16 03:59:25;;;;;;;32.03;18.20;;;;;;;2.21;87.71;100504.88;5069878;28;20518;-87
2022/01/16 04:01:50;;;;;;;38.22;21.98;;;;;;;2.26;87.07;100503.47;5069732;28;20482;-87
2022/01/16 04:04:16;;;;;;;38.85;22.63;;;;;;;2.35;86.84;100505.00;5067952;28;20356;-87
2022/01/16 04:06:41;;;;;;;44.00;20.55;;;;;;;2.33;87.15;100504.34;5050231;28;20404;-87
2022/01/16 04:09:07;;;;;;;30.98;18.60;;;;;;;2.39;86.90;100494.69;5067697;28;20067;-88
2022/01/16 04:11:33;;;;;;;33.90;21.13;;;;;;;2.33;86.59;100477.44;5068508;28;20475;-87
2022/01/16 04:14:08;;;;;;;40.67;24.85;;;;;;;2.24;86.76;100474.03;5067423;28;20021;-87
2022/01/16 04:16:35;;;;;;;36.72;22.23;;;;;;;2.31;86.94;100474.09;5068486;28;20054;-87
2022/01/16 04:19:00;;;;;;;40.13;22.75;;;;;;;2.18;86.98;100478.31;5068018;28;20044;-88
2022/01/16 04:21:28;;;;;;;40.70;22.52;;;;;;;2.19;87.85;100477.31;5067853;28;20024;-87
2022/01/16 04:23:54;;;;;;;34.95;20.42;;;;;;;2.22;87.16;100482.31;5067879;28;20032;-87
2022/01/16 04:26:20;;;;;;;37.97;23.00;;;;;;;2.09;87.96;100487.56;5067998;28;20353;-86
2022/01/16 04:28:46;;;;;;;42.35;24.77;;;;;;;2.10;87.32;100495.44;5067559;28;20037;-88
2022/01/16 04:31:13;;;;;;;34.40;21.38;;;;;;;2.11;87.72;100496.28;5067408;28;20487;-87
2022/01/16 04:33:38;;;;;;;36.72;22.90;;;;;;;2.15;88.15;100497.56;5067499;28;20070;-87
2022/01/16 04:36:04;;;;;;;34.70;18.33;;;;;;;2.19;87.91;100506.91;5067345;28;20033;-87
2022/01/16 04:38:30;;;;;;;34.15;23.48;;;;;;;2.21;87.51;100515.63;5049329;28;20020;-87
2022/01/16 04:43:48;;;;;;;38.42;22.40;;;;;;;2.31;87.29;100522.56;5066426;28;20043;-86
2022/01/16 04:46:18;;;;;;;34.13;20.23;;;;;;;2.34;87.00;100522.16;5067417;28;20029;-87
2022/01/16 04:48:44;;;;;;;36.40;22.90;;;;;;;2.35;87.03;100515.75;5066692;28;20109;-86
2022/01/16 04:51:10;;;;;;;41.85;25.00;;;;;;;2.53;86.69;100514.47;5067223;28;20476;-88
2022/01/16 04:53:36;;;;;;;39.08;22.63;;;;;;;2.57;86.58;100523.84;5049235;28;20434;-86
2022/01/16 04:56:02;;;;;;;47.22;24.95;;;;;;;2.40;87.00;100526.78;5066918;28;20092;-87
2022/01/16 04:58:27;;;;;;;36.83;23.20;;;;;;;2.37;87.45;100527.16;5066820;28;20029;-87
2022/01/16 05:00:54;;;;;;;41.47;23.55;;;;;;;2.50;87.36;100521.06;5067188;28;20032;-88
2022/01/16 05:03:20;;;;;;;42.03;24.85;;;;;;;2.47;86.83;100520.63;5067108;28;20029;-87
2022/01/16 05:05:46;;;;;;;43.83;22.88;;;;;;;2.61;86.59;100516.19;5066569;28;20028;-87
2022/01/16 05:08:11;;;;;;;44.40;26.80;;;;;;;2.44;86.20;100511.91;5067277;28;20052;-87
2022/01/16 05:10:36;;;;;;;45.05;25.63;;;;;;;2.30;87.30;100504.72;5066711;28;20044;-87
2022/01/16 05:13:28;;;;;;;42.55;24.75;;;;;;;2.45;86.80;100502.81;5048322;28;20032;-87
2022/01/16 05:18:38;;;;;;;42.78;25.17;;;;;;;2.35;87.02;100490.69;5067118;28;20119;-87
2022/01/16 05:21:04;;;;;;;43.30;26.42;;;;;;;2.47;87.05;100494.56;5066588;28;20487;-87
2022/01/16 05:23:29;;;;;;;48.08;23.38;;;;;;;2.38;87.77;100495.72;5066394;28;20047;-87
2022/01/16 05:25:55;;;;;;;43.45;25.25;;;;;;;2.33;88.10;100504.34;5048111;28;20071;-86
2022/01/16 05:28:20;;;;;;;50.67;27.02;;;;;;;2.41;88.10;100490.78;5048067;28;20796;-88
2022/01/16 05:30:46;;;;;;;48.38;25.90;;;;;;;2.42;87.69;100497.81;5048042;28;20051;-87
2022/01/16 05:33:11;;;;;;;54.95;29.17;;;;;;;2.30;88.04;100504.72;5066164;28;20491;-88
2022/01/16 05:35:37;;;;;;;44.05;26.52;;;;;;;2.30;88.41;100504.72;5066027;28;20379;-87
2022/01/16 05:38:02;;;;;;;56.15;31.08;;;;;;;2.33;88.12;100504.34;5066535;28;20020;-87
2022/01/16 05:40:28;;;;;;;47.83;29.58;;;;;;;2.28;88.03;100507.59;5065284;28;20171;-88
2022/01/16 05:42:54;;;;;;;59.90;29.58;;;;;;;2.35;87.73;100499.63;5047529;28;20384;-88
2022/01/16 05:45:19;;;;;;;56.08;30.58;;;;;;;2.40;87.67;100499.84;5066031;28;20021;-87
2022/01/16 05:47:45;;;;;;;55.75;29.15;;;;;;;2.45;87.06;100512.75;5048191;28;20017;-86
2022/01/16 05:52:54;;;;;;;60.58;32.15;;;;;;;2.52;86.97;100512.81;5061436;28;20075;-88
2022/01/16 05:55:20;;;;;;;53.78;30.85;;;;;;;2.62;86.78;100523.25;5066366;28;20020;-87
2022/01/16 05:57:46;;;;;;;51.22;30.50;;;;;;;2.61;87.00;100521.59;5065794;28;20033;-88
2022/01/16 06:00:13;;;;;;;53.45;29.70;;;;;;;2.56;86.34;100519.50;5065832;28;20024;-87
2022/01/16 06:02:39;;;;;;;56.90;33.03;;;;;;;2.48;87.04;100523.16;5065943;28;20407;-88
2022/01/16 06:05:05;;;;;;;53.35;30.25;;;;;;;2.46;87.46;100519.81;5065416;28;20033;-86
2022/01/16 06:07:30;;;;;;;55.08;34.30;;;;;;;2.53;87.18;100514.47;5065600;28;20101;-87
2022/01/16 06:09:57;;;;;;;58.90;27.77;;;;;;;2.49;87.48;100510.50;5047915;28;20020;-87
2022/01/16 06:12:22;;;;;;;52.78;30.80;;;;;;;2.54;87.21;100500.81;5065771;28;20028;-88
2022/01/16 06:14:47;;;;;;;61.15;33.55;;;;;;;2.48;87.03;100501.63;5065448;28;20027;-88
2022/01/16 06:17:13;;;;;;;63.05;34.50;;;;;;;2.40;87.37;100493.66;5065882;28;20032;-87
2022/01/16 06:19:38;;;;;;;57.00;33.75;;;;;;;2.48;87.67;100492.69;5065724;28;20469;-87
2022/01/16 06:22:04;;;;;;;53.25;30.00;;;;;;;2.59;86.90;100486.78;5065465;28;20024;-88
2022/01/16 06:24:29;;;;;;;65.85;33.50;;;;;;;2.50;87.40;100483.38;5065630;28;20020;-86
2022/01/16 06:26:55;;;;;;;63.75;36.13;;;;;;;2.54;86.72;100478.47;5065103;28;20111;-86
2022/01/16 06:29:21;;;;;;;58.35;32.63;;;;;;;2.51;87.68;100492.28;5065759;28;20017;-87
2022/01/16 06:34:30;;;;;;;55.17;35.50;;;;;;;2.51;87.49;100495.84;5061848;28;20521;-88
2022/01/16 06:36:57;;;;;;;55.03;31.65;;;;;;;2.51;87.45;100497.69;5065614;28;20032;-87
2022/01/16 06:39:22;;;;;;;59.55;33.75;;;;;;;2.58;87.30;100511.22;5065451;28;20356;-87
2022/01/16 06:41:48;;;;;;;65.05;32.00;;;;;;;2.54;87.56;100516.16;5065344;28;20025;-87
2022/01/16 06:44:13;;;;;;;64.88;34.47;;;;;;;2.62;87.09;100518.72;5065005;28;20035;-87
2022/01/16 06:46:38;;;;;;;52.78;31.08;;;;;;;2.62;86.74;100513.34;5056062;28;20070;-87
2022/01/16 06:49:03;;;;;;;58.90;33.75;;;;;;;2.55;87.24;100517.81;5085061;28;20016;-87
2022/01/16 06:51:29;;;;;;;54.30;35.53;;;;;;;2.58;86.73;100505.81;5086434;28;20412;-87
2022/01/16 06:53:55;;;;;;;63.70;34.75;;;;;;;2.65;86.59;100507.56;5089551;28;20020;-88
2022/01/16 06:56:21;;;;;;;72.80;36.97;;;;;;;2.59;86.88;100513.72;5089470;28;20038;-87
2022/01/16 06:58:46;;;;;;;63.67;33.78;;;;;;;2.56;86.32;100514.09;5089191;28;20020;-86
2022/01/16 07:01:13;;;;;;;60.03;35.92;;;;;;;2.54;86.93;100521.53;5071177;28;20016;-86
2022/01/16 07:03:39;;;;;;;59.60;33.55;;;;;;;2.67;86.82;100520.81;5089554;28;20028;-87
2022/01/16 07:06:04;;;;;;;70.22;37.40;;;;;;;2.67;86.73;100527.03;5088944;28;20035;-88
2022/01/16 07:08:30;;;;;;;56.85;31.77;;;;;;;2.76;86.07;100529.59;5071437;28;20056;-87
2022/01/16 07:10:57;;;;;;;58.53;35.13;;;;;;;2.86;85.72;100524.72;5089495;28;20020;-87
2022/01/16 07:13:23;;;;;;;64.55;34.65;;;;;;;2.80;85.91;100522.81;5081128;28;20345;-87
2022/01/16 07:15:49;;;;;;;60.72;34.20;;;;;;;2.87;86.04;100525.53;5069224;28;20078;-86
2022/01/16 07:18:15;;;;;;;62.97;34.13;;;;;;;2.83;85.42;100524.28;5068476;28;20059;-88
2022/01/16 07:20:43;;;;;;;57.40;33.55;;;;;;;2.88;85.40;100533.44;5068905;28;20283;-87
2022/01/16 07:23:08;;;;;;;57.70;30.45;;;;;;;3.01;84.72;100534.59;5050650;28;20044;-87
2022/01/16 07:25:34;;;;;;;62.85;33.60;;;;;;;2.87;85.41;100544.38;5068591;28;20032;-87
2022/01/16 07:27:59;;;;;;;60.28;34.30;;;;;;;2.78;85.62;100549.09;5068169;28;20035;-87
2022/01/16 07:30:24;;;;;;;58.53;35.25;;;;;;;2.70;85.83;100550.06;5068796;28;20484;-87
2022/01/16 07:32:49;;;;;;;62.20;32.97;;;;;;;2.87;85.24;100556.00;5068333;28;20033;-88
2022/01/16 07:35:15;;;;;;;59.45;33.85;;;;;;;2.72;85.49;100557.94;5050440;28;20068;-87
2022/01/16 07:37:40;;;;;;;75.50;36.07;;;;;;;2.95;85.71;100555.03;5050514;28;20054;-87
2022/01/16 07:40:06;;;;;;;57.55;34.10;;;;;;;2.91;84.53;100557.28;5068646;28;20870;-87
2022/01/16 07:42:32;;;;;;;53.72;31.98;;;;;;;2.92;85.11;100571.59;5068337;28;20024;-88
2022/01/16 07:44:58;;;;;;;56.72;30.75;;;;;;;2.91;84.89;100569.91;5068160;28;20107;-87
2022/01/16 07:47:23;;;;;;;55.22;32.13;;;;;;;2.84;85.55;100559.09;5082870;28;20131;-88
2022/01/16 07:52:33;;;;;;;54.50;29.13;;;;;;;2.94;85.25;100568.69;5085132;28;20039;-87
2022/01/16 07:54:58;;;;;;;53.15;32.22;;;;;;;2.84;85.73;100569.88;5088916;28;20020;-87
2022/01/16 07:57:24;;;;;;;54.13;33.28;;;;;;;2.87;85.95;100566.78;5088458;28;20032;-86
2022/01/16 07:59:50;;;;;;;52.28;32.78;;;;;;;3.00;85.39;100571.47;5087763;28;20044;-88
2022/01/16 08:02:16;;;;;;;59.00;32.88;;;;;;;3.00;84.77;100573.31;5068227;28;20395;-88
2022/01/16 08:04:41;;;;;;;49.50;29.98;;;;;;;2.97;84.90;100579.09;5067857;28;20024;-87
2022/01/16 08:07:09;;;;;;;58.57;33.07;;;;;;;3.06;85.07;100577.94;5068019;28;20027;-87
2022/01/16 08:09:34;;;;;;;56.45;33.00;;;;;;;3.00;85.09;100579.53;5068407;28;20288;-87
2022/01/16 08:12:00;;;;;;;60.97;35.10;;;;;;;3.10;85.13;100571.13;5068213;28;20052;-87
2022/01/16 08:14:25;;;;;;;53.33;31.77;;;;;;;3.09;84.91;100566.75;5067564;28;20514;-87
2022/01/16 08:16:50;;;;;;;65.00;33.05;;;;;;;2.94;85.01;100566.84;5068388;28;20349;-87
2022/01/16 08:19:16;;;;;;;61.55;35.35;;;;;;;2.85;86.23;100566.13;5066199;28;20036;-87
2022/01/16 08:21:41;;;;;;;61.87;34.37;;;;;;;2.89;85.86;100577.34;5067932;28;20062;-88
2022/01/16 08:24:06;;;;;;;54.50;31.23;;;;;;;2.90;86.07;100573.66;5067817;28;20265;-88
2022/01/16 08:26:32;;;;;;;55.85;31.63;;;;;;;2.89;86.33;100572.81;5068098;28;20265;-88
2022/01/16 08:28:58;;;;;;;60.30;34.67;;;;;;;2.94;86.04;100568.69;5068729;28;20143;-87
2022/01/16 08:31:23;;;;;;;51.33;28.83;;;;;;;3.04;85.98;100563.81;5052015;28;20056;-86
2022/01/16 08:33:49;;;;;;;54.47;31.70;;;;;;;2.99;85.71;100583.25;5047907;28;20045;-88
2022/01/16 08:36:14;;;;;;;60.42;36.00;;;;;;;2.97;85.68;100587.19;5047237;28;20020;-87
2022/01/16 08:38:40;;;;;;;51.22;32.33;;;;;;;3.07;85.87;100589.53;5047711;28;20057;-87
2022/01/16 08:41:05;;;;;;;70.88;34.80;;;;;;;3.12;85.04;100593.31;5029145;28;20499;-87
2022/01/16 08:43:31;;;;;;;56.22;35.03;;;;;;;2.99;85.86;100596.72;5056191;28;20468;-87
2022/01/16 08:45:56;;;;;;;55.22;32.40;;;;;;;3.12;85.38;100593.31;5069087;28;20495;-87
2022/01/16 08:48:22;;;;;;;54.38;32.10;;;;;;;3.12;85.91;100598.72;5069601;28;20044;-87
2022/01/16 08:50:47;;;;;;;63.25;36.08;;;;;;;3.02;86.22;100596.34;5049287;28;20115;-88
2022/01/16 08:53:12;;;;;;;55.67;34.38;;;;;;;3.12;85.48;100595.16;5067069;28;20021;-87
2022/01/16 08:55:37;;;;;;;52.30;30.73;;;;;;;3.00;85.98;100600.25;5080920;28;20110;-87
2022/01/16 08:58:03;;;;;;;65.40;32.75;;;;;;;3.24;85.59;100606.25;5086786;28;20386;-87
2022/01/16 09:00:29;;;;;;;53.45;31.17;;;;;;;3.27;85.13;100620.16;5081148;28;20029;-87
2022/01/16 09:02:54;;;;;;;58.20;34.42;;;;;;;3.17;85.92;100610.78;5066504;28;20024;-88
2022/01/16 09:05:19;;;;;;;51.55;30.38;;;;;;;3.20;85.61;100613.06;5058569;28;20048;-87
2022/01/16 09:07:45;;;;;;;62.60;34.53;;;;;;;3.17;85.66;100617.00;5058109;28;20065;-87
2022/01/16 09:10:25;;;;;;;67.10;30.35;;;;;;;3.36;85.68;100609.25;5069883;28;20032;-87
2022/01/16 09:12:50;;;;;;;52.25;33.35;;;;;;;3.29;85.47;100608.38;5066542;28;20494;-88
2022/01/16 09:15:16;;;;;;;56.35;29.73;;;;;;;3.23;84.91;100610.84;5066545;28;20024;-88
2022/01/16 09:17:41;;;;;;;52.05;30.23;;;;;;;3.10;86.16;100619.63;5067008;28;20389;-88
2022/01/16 09:20:09;;;;;;;58.92;32.80;;;;;;;3.24;85.20;100622.44;5066927;28;20103;-88
2022/01/16 09:22:36;;;;;;;48.63;29.90;;;;;;;3.35;85.63;100624.59;5068063;28;20044;-88
2022/01/16 09:25:04;;;;;;;45.10;29.50;;;;;;;3.22;85.22;100627.19;5062765;28;20059;-88
2022/01/16 09:27:29;;;;;;;48.78;27.27;;;;;;;3.47;84.42;100626.75;5046954;28;20024;-86
2022/01/16 09:29:55;;;;;;;51.85;28.70;;;;;;;3.47;84.24;100635.69;5064606;28;20017;-88
2022/01/16 09:32:20;;;;;;;56.22;28.73;;;;;;;3.47;84.70;100626.75;5064818;28;20097;-87
2022/01/16 09:34:45;;;;;;;48.35;27.48;;;;;;;3.40;84.60;100636.66;5065077;28;20040;-88
2022/01/16 09:37:11;;;;;;;42.80;25.17;;;;;;;3.56;83.95;100638.25;5064825;28;20017;-87
2022/01/16 09:39:37;;;;;;;52.33;28.88;;;;;;;3.57;84.17;100646.13;5061149;28;20429;-87
2022/01/16 09:45:09;;;;;;;43.97;24.77;;;;;;;3.61;83.84;100649.25;5070746;28;20051;-88
2022/01/16 09:47:35;;;;;;;40.25;26.88;;;;;;;3.77;83.59;100642.72;5066120;28;20411;-88
2022/01/16 09:50:04;;;;;;;39.40;23.83;;;;;;;3.61;83.86;100643.88;5082644;28;20020;-88
2022/01/16 09:52:31;;;;;;;46.05;24.88;;;;;;;3.50;84.39;100646.06;5085611;28;20039;-87
2022/01/16 09:54:56;;;;;;;53.95;29.15;;;;;;;3.70;84.00;100652.66;5085078;28;20024;-87
2022/01/16 09:57:21;;;;;;;43.20;25.50;;;;;;;3.70;83.70;100647.25;5084992;28;20024;-87
2022/01/16 09:59:47;;;;;;;47.38;29.23;;;;;;;3.69;83.56;100656.38;5085043;28;20028;-87
2022/01/16 10:02:12;;;;;;;46.15;27.13;;;;;;;3.71;83.58;100654.31;5084938;28;20036;-88
2022/01/16 10:04:40;;;;;;;43.28;27.58;;;;;;;3.66;83.63;100659.47;5085234;28;20008;-88
2022/01/16 10:07:15;;;;;;;44.35;27.52;;;;;;;3.74;83.52;100652.03;5085001;28;20162;-87
2022/01/16 10:09:43;;;;;;;48.80;29.42;;;;;;;3.60;83.43;100653.00;5083263;28;20035;-87
2022/01/16 10:12:16;;;;;;;47.63;26.88;;;;;;;3.83;83.45;100655.44;5085565;28;20035;-86
2022/01/16 10:17:28;;;;;;;42.40;27.25;;;;;;;3.72;83.38;100656.78;5063570;28;20400;-86
2022/01/16 10:20:03;;;;;;;42.38;24.85;;;;;;;3.95;82.75;100662.97;5081422;28;20024;-88
2022/01/16 10:22:44;;;;;;;43.20;25.83;;;;;;;4.23;81.66;100645.88;5063487;28;20043;-87
2022/01/16 10:25:11;;;;;;;39.35;22.52;;;;;;;4.22;80.75;100649.63;5080646;28;20025;-88
2022/01/16 10:27:38;;;;;;;43.03;25.92;;;;;;;4.30;80.69;100645.91;5077839;28;20123;-87
2022/01/16 10:30:07;;;;;;;45.42;26.33;;;;;;;4.13;81.57;100653.53;5082534;28;20032;-88
2022/01/16 10:32:37;;;;;;;45.42;26.30;;;;;;;4.16;81.78;100645.03;5083655;28;20043;-88
2022/01/16 10:35:22;;;;;;;36.85;23.88;;;;;;;4.44;81.06;100642.22;5083574;28;20054;-87
2022/01/16 10:37:52;;;;;;;46.58;24.17;;;;;;;4.43;80.26;100639.75;5080988;28;20383;-88
2022/01/16 10:40:32;;;;;;;39.53;22.08;;;;;;;4.44;80.43;100641.38;5065876;28;20020;-88
2022/01/16 10:43:03;;;;;;;46.03;23.85;;;;;;;4.39;80.45;100647.41;5063871;28;20423;-87
2022/01/16 10:45:29;;;;;;;37.40;24.65;;;;;;;4.62;79.83;100648.09;5066294;28;20035;-86
2022/01/16 10:47:57;;;;;;;40.80;23.15;;;;;;;4.45;80.41;100653.88;5084999;28;20035;-88
2022/01/16 10:50:31;;;;;;;44.47;24.40;;;;;;;4.64;79.83;100651.41;5065981;28;20054;-88
2022/01/16 10:53:08;;;;;;;42.75;25.92;;;;;;;4.52;80.33;100649.31;5085640;28;20483;-87
2022/01/16 10:55:38;;;;;;;34.90;21.05;;;;;;;4.23;80.60;100650.47;5066200;28;20395;-87
2022/01/16 10:58:11;;;;;;;31.30;18.77;;;;;;;4.28;80.52;100653.38;5085213;28;20032;-88
2022/01/16 11:00:38;;;;;;;40.10;23.85;;;;;;;4.34;80.90;100657.97;5083661;28;20494;-88
2022/01/16 11:03:05;;;;;;;39.28;21.67;;;;;;;4.40;80.78;100661.72;5084442;28;20055;-88
2022/01/16 11:05:43;;;;;;;35.90;21.80;;;;;;;4.35;80.25;100666.91;5084639;28;20039;-87
2022/01/16 11:08:29;;;;;;;37.08;20.30;;;;;;;4.54;79.65;100673.41;5084421;28;20023;-88
2022/01/16 11:10:56;;;;;;;40.78;23.63;;;;;;;4.52;80.20;100670.94;5082927;28;20491;-87
2022/01/16 11:13:27;;;;;;;39.50;22.27;;;;;;;4.13;81.20;100683.22;5091602;28;20062;-87
2022/01/16 11:15:55;;;;;;;41.13;24.55;;;;;;;4.66;80.01;100677.22;5105266;28;20533;-87
2022/01/16 11:18:22;;;;;;;36.25;20.38;;;;;;;4.78;79.06;100672.03;5105248;28;20040;-88
2022/01/16 11:21:15;;;;;;;40.20;22.60;;;;;;;4.65;79.54;100674.72;5104529;28;20467;-87
2022/01/16 11:26:24;;;;;;;37.08;22.58;;;;;;;4.40;80.28;100678.78;5104705;28;20105;-88
2022/01/16 11:29:06;;;;;;;38.80;22.35;;;;;;;4.35;81.29;100681.25;5086626;28;20019;-87
2022/01/16 11:31:31;;;;;;;38.17;21.75;;;;;;;4.52;81.25;100672.78;5088157;28;20048;-88
2022/01/16 11:33:57;;;;;;;39.28;21.52;;;;;;;4.51;81.10;100680.06;5083817;28;20048;-87
2022/01/16 11:36:25;;;;;;;41.05;21.70;;;;;;;4.34;81.42;100679.56;5084714;28;20122;-87
2022/01/16 11:39:04;;;;;;;45.38;23.08;;;;;;;4.60;80.84;100688.81;5086137;28;20028;-88
2022/01/16 11:41:46;;;;;;;43.15;24.73;;;;;;;4.47;81.39;100686.91;5088061;28;20032;-88
2022/01/16 11:44:29;;;;;;;36.33;23.20;;;;;;;4.65;80.28;100680.97;5098076;28;20039;-88
2022/01/16 11:46:58;;;;;;;41.85;23.42;;;;;;;4.29;81.76;100693.66;5078484;28;20040;-87
2022/01/16 11:49:38;;;;;;;40.33;22.45;;;;;;;4.78;81.35;100685.56;5087156;28;20090;-88
2022/01/16 11:52:09;;;;;;;35.58;21.48;;;;;;;4.89;80.60;100681.44;5088049;28;20039;-88
2022/01/16 11:54:37;;;;;;;48.03;25.67;;;;;;;4.77;80.68;100681.19;5087707;28;20423;-87
2022/01/16 11:57:04;;;;;;;43.17;23.55;;;;;;;4.76;81.59;100676.00;5070230;28;20123;-88
2022/01/16 11:59:30;;;;;;;43.58;22.90;;;;;;;4.81;81.25;100673.50;5087796;28;20115;-88
2022/01/16 12:02:16;;;;;;;40.90;24.50;;;;;;;4.87;81.51;100686.22;5087270;28;20131;-88
2022/01/16 12:04:50;;;;;;;41.25;27.02;;;;;;;5.06;81.27;100680.22;5087800;28;20065;-88
2022/01/16 12:07:20;;;;;;;40.65;23.33;;;;;;;5.07;80.70;100669.19;5087350;28;20113;-88
2022/01/16 12:12:10;;;;;;;48.43;26.37;;;;;;;5.32;79.79;100668.59;5087480;28;20414;-89
2022/01/16 12:15:02;;;;;;;48.37;24.63;;;;;;;5.28;80.20;100671.91;5106303;28;20036;-89
2022/01/16 12:17:44;;;;;;;41.67;22.55;;;;;;;5.19;81.04;100665.88;5093832;28;20353;-89
2022/01/16 12:22:53;;;;;;;39.78;23.52;;;;;;;5.12;80.94;100674.00;5087442;28;20142;-88